Latest Coastal Weather Observations for Rowley Shoals

IDW60701

Issued at 9:25 pm WST Saturday 25 October 2014 (issued every 10 minutes, with the page automatically refreshed every 10 minutes)

About coastal observations | Map of coastal stations | Coastal observations for WA | Marine services | Other Formats
Station Details ID: 200713 Name: ROWLEY SHOALS Lat: -17.52 Lon: 118.95 Height: 0.0 m
Data from the previous 72 hours. | See also: Recent months for locations in Western Australia
Date/Time
WST
Temp

°C
Wind Pressure Rain
since 9am
mm
Weather Cloud Vis
km
Sea
Height
m
Swell
Dir
 
Speed
knots
Gust
knots
hPa Trend Height
m
Period
s
Dir
25/09:00pm - W 10 11 1013.2 - - - - - - - - -
25/08:30pm - W 10 11 1013.2 - - - - - - - - -
25/08:00pm - W 10 11 1013.2 - - - - - - - - -
25/07:30pm - W 8 9 1013.3 - - - - - - - - -
25/07:00pm - W 7 8 1013.2 - - - - - - - - -
25/06:30pm - W 7 8 1012.9 - - - - - - - - -
25/06:00pm - WSW 8 9 1012.7 - - - - - - - - -
25/05:30pm - WSW 8 9 1012.3 - - - - - - - - -
25/05:00pm - WSW 11 13 1012.1 - - - - - - - - -
25/04:30pm - WSW 14 16 1011.5 - - - - - - - - -
25/04:00pm - WSW 13 16 1011.6 - - - - - - - - -
25/03:30pm - W 13 15 1011.4 - - - - - - - - -
25/03:00pm - WSW 14 16 1011.5 - - - - - - - - -
25/02:30pm - WSW 14 16 1011.6 - - - - - - - - -
25/02:00pm - WSW 15 16 1011.8 - - - - - - - - -
25/01:30pm - W 13 15 1012.2 - - - - - - - - -
25/01:00pm - W 13 14 1012.4 - - - - - - - - -
25/12:30pm - W 10 12 1012.9 - - - - - - - - -
25/12:00pm - W 11 13 1013.1 - - - - - - - - -
25/11:30am - W 11 12 1013.6 - - - - - - - - -
25/11:00am - W 11 14 1013.9 - - - - - - - - -
25/10:30am - W 11 13 1014.2 - - - - - - - - -
25/10:00am - W 11 12 1014.2 - - - - - - - - -
25/09:30am - W 11 13 1014.4 - - - - - - - - -
25/09:00am - W 11 13 1014.3 - - - - - - - - -
25/08:30am - W 12 14 1014.1 - - - - - - - - -
25/08:00am - W 11 12 1013.9 - - - - - - - - -
25/07:30am - W 11 12 1013.4 - - - - - - - - -
25/07:00am - W 11 13 1013.4 - - - - - - - - -
25/06:30am - W 11 13 1013.1 - - - - - - - - -
25/06:00am - W 11 14 1013.0 - - - - - - - - -
25/05:30am - W 12 14 1012.8 - - - - - - - - -
25/05:00am - W 12 13 1012.6 - - - - - - - - -
25/04:30am - W 13 15 1012.3 - - - - - - - - -
25/04:00am - W 12 14 1012.0 - - - - - - - - -
25/03:30am - WSW 14 16 1011.7 - - - - - - - - -
25/03:00am - WSW 15 18 1011.6 - - - - - - - - -
25/02:30am - WSW 16 19 1011.3 - - - - - - - - -
25/02:00am - WSW 17 20 1011.2 - - - - - - - - -
25/01:30am - W 17 19 1011.2 - - - - - - - - -
25/01:00am - W 17 19 1011.4 - - - - - - - - -
25/12:30am - W 15 17 1011.9 - - - - - - - - -
25/12:00am - W 15 17 1011.8 - - - - - - - - -
 
Date/Time
WST
Temp

°C
Wind Pressure Rain
since 9am
mm
Weather Cloud Vis
km
Sea
Height
m
Swell
Dir
 
Speed
knots
Gust
knots
hPa Trend Height
m
Period
s
Dir
24/11:30pm - W 14 16 1012.3 - - - - - - - - -
24/11:00pm - WNW 13 15 1012.6 - - - - - - - - -
24/10:30pm - WNW 12 14 1012.8 - - - - - - - - -
24/10:00pm - WNW 13 15 1012.9 - - - - - - - - -
24/09:30pm - WNW 13 15 1012.7 - - - - - - - - -
24/09:00pm - WNW 13 14 1012.8 - - - - - - - - -
24/08:30pm - WNW 12 14 1012.6 - - - - - - - - -
24/08:00pm - WNW 12 14 1012.5 - - - - - - - - -
24/07:30pm - NW 12 13 1012.0 - - - - - - - - -
24/07:00pm - NW 12 13 1011.8 - - - - - - - - -
24/06:30pm - NW 10 11 1011.6 - - - - - - - - -
24/06:00pm - NW 10 12 1011.3 - - - - - - - - -
24/05:30pm - NW 10 11 1010.8 - - - - - - - - -
24/05:00pm - NW 10 11 1010.5 - - - - - - - - -
24/04:30pm - NW 10 11 1010.4 - - - - - - - - -
24/04:00pm - NW 9 9 1010.4 - - - - - - - - -
24/03:30pm - NW 8 9 1010.6 - - - - - - - - -
24/03:00pm - NW 7 9 1010.6 - - - - - - - - -
24/02:30pm - W 10 11 1010.3 - - - - - - - - -
24/02:00pm - W 9 11 1010.5 - - - - - - - - -
24/01:30pm - W 11 12 1010.8 - - - - - - - - -
24/01:00pm - W 12 13 1010.8 - - - - - - - - -
24/12:30pm - W 12 14 1011.2 - - - - - - - - -
24/12:00pm - WNW 12 14 1011.4 - - - - - - - - -
24/11:30am - WNW 12 14 1011.7 - - - - - - - - -
24/11:00am - WNW 10 11 1011.8 - - - - - - - - -
24/10:30am - WNW 10 11 1012.0 - - - - - - - - -
24/10:00am - WNW 11 12 1012.0 - - - - - - - - -
24/09:30am - WNW 11 12 1012.1 - - - - - - - - -
24/09:00am - W 11 14 1012.1 - - - - - - - - -
24/08:30am - W 12 13 1011.9 - - - - - - - - -
24/08:00am - W 11 12 1012.1 - - - - - - - - -
24/07:30am - WNW 8 9 1012.1 - - - - - - - - -
24/07:00am - WNW 8 8 1011.7 - - - - - - - - -
24/06:30am - W 9 10 1011.4 - - - - - - - - -
24/06:00am - W 8 9 1011.2 - - - - - - - - -
24/05:30am - W 7 8 1011.1 - - - - - - - - -
24/05:00am - W 6 7 1010.9 - - - - - - - - -
24/04:30am - WNW 5 7 1010.9 - - - - - - - - -
24/04:00am - WNW 6 7 1010.7 - - - - - - - - -
24/03:30am - W 11 12 1009.9 - - - - - - - - -
24/03:00am - W 9 10 1010.1 - - - - - - - - -
24/02:30am - W 8 9 1010.4 - - - - - - - - -
24/02:00am - WSW 9 10 1010.3 - - - - - - - - -
24/01:30am - W 6 7 1011.1 - - - - - - - - -
24/01:00am - W 7 7 1011.0 - - - - - - - - -
24/12:30am - W 5 6 1011.5 - - - - - - - - -
24/12:00am - W 5 7 1011.5 - - - - - - - - -
 
Date/Time
WST
Temp

°C
Wind Pressure Rain
since 9am
mm
Weather Cloud Vis
km
Sea
Height
m
Swell
Dir
 
Speed
knots
Gust
knots
hPa Trend Height
m
Period
s
Dir
23/11:30pm - W 5 6 1011.7 - - - - - - - - -
23/11:00pm - W 6 8 1011.8 - - - - - - - - -
23/10:30pm - W 8 9 1011.9 - - - - - - - - -
23/10:00pm - W 9 10 1011.9 - - - - - - - - -
23/09:30pm - W 7 8 1011.9 - - - - - - - - -
23/09:00pm - W 7 8 1011.7 - - - - - - - - -
23/08:30pm - W 7 8 1011.5 - - - - - - - - -
23/08:00pm - W 8 8 1011.3 - - - - - - - - -
23/07:30pm - W 8 9 1011.1 - - - - - - - - -
23/07:00pm - W 8 9 1010.7 - - - - - - - - -
23/06:30pm - W 8 9 1010.4 - - - - - - - - -
23/06:00pm - W 9 9 1010.1 - - - - - - - - -
23/05:30pm - W 9 10 1009.7 - - - - - - - - -
23/05:00pm - W 8 9 1009.7 - - - - - - - - -
23/04:30pm - WSW 8 9 1009.4 - - - - - - - - -
23/04:00pm - WSW 9 11 1009.3 - - - - - - - - -
23/03:30pm - WSW 12 13 1009.4 - - - - - - - - -
23/03:00pm - W 12 13 1009.3 - - - - - - - - -
23/02:30pm - W 10 11 1009.5 - - - - - - - - -
23/02:00pm - W 12 13 1009.7 - - - - - - - - -
23/01:30pm - W 11 13 1009.8 - - - - - - - - -
23/01:00pm - W 9 10 1010.2 - - - - - - - - -
23/12:30pm - WNW 9 10 1010.8 - - - - - - - - -
23/12:00pm - WNW 8 8 1011.0 - - - - - - - - -
23/11:30am - WNW 7 8 1011.5 - - - - - - - - -
23/11:00am - W 7 8 1011.6 - - - - - - - - -
23/10:30am - WNW 7 8 1011.7 - - - - - - - - -
23/10:00am - WNW 6 8 1011.6 - - - - - - - - -
23/09:30am - W 8 9 1011.4 - - - - - - - - -
23/09:00am - W 9 - 1011.5 - - - - - - - - -
23/08:30am - W 10 12 1011.3 - - - - - - - - -
23/08:00am - WSW 10 14 1011.3 - - - - - - - - -
23/07:30am - W 11 14 1011.0 - - - - - - - - -
23/07:00am - W 10 13 1010.9 - - - - - - - - -
23/06:30am - W 11 13 1010.5 - - - - - - - - -
23/06:00am - W 11 13 1010.4 - - - - - - - - -
23/05:30am - W 10 13 1010.4 - - - - - - - - -
23/05:00am - W 11 13 1010.4 - - - - - - - - -
23/04:30am - W 12 13 1009.9 - - - - - - - - -
23/04:00am - W 11 13 1009.8 - - - - - - - - -
23/03:30am - W 13 15 1009.5 - - - - - - - - -
23/03:00am - W 8 8 1010.0 - - - - - - - - -
23/02:30am - W 6 7 1010.3 - - - - - - - - -
23/02:00am - WNW 5 5 1010.7 - - - - - - - - -
23/01:30am - W 3 4 1011.1 - - - - - - - - -
23/01:00am - W 4 5 1011.4 - - - - - - - - -
23/12:30am - WSW 7 8 1011.5 - - - - - - - - -
23/12:00am - WSW 9 10 1011.5 - - - - - - - - -
 
Date/Time
WST
Temp

°C
Wind Pressure Rain
since 9am
mm
Weather Cloud Vis
km
Sea
Height
m
Swell
Dir
 
Speed
knots
Gust
knots
hPa Trend Height
m
Period
s
Dir
22/11:30pm - WSW 10 11 1011.6 - - - - - - - - -
22/11:00pm - WSW 10 14 1011.7 - - - - - - - - -
22/10:30pm - WSW 14 17 1011.6 - - - - - - - - -
22/10:00pm - WSW 15 17 1011.8 - - - - - - - - -
22/09:30pm - WSW 14 17 1011.7 - - - - - - - - -

Other Formats:

Comma delimited format used in spreadsheet applications
http://www.bom.gov.au/fwo/IDW60701/IDW60701.94207.axf

JavaScript Object Notation format (JSON) in row-major order
http://www.bom.gov.au/fwo/IDW60701/IDW60701.94207.json